Terminal Aerodrome Forecast
Issued by NWS Tampa Bay Area, FL

Home | Current Version | Previous Version | Text Only | Print | Product List | Glossary On
Versions: 1 2 3 4 5 6 7 8 9 10 11 12
000
FTUS42 KTBW 282300
TAFSRQ
TAF
KSRQ 282339Z 2900/2924 26011KT P6SM SCT030 SCT250
     FM290600 25010KT P6SM VCSH SCT020 BKN250
     FM291200 26011KT P6SM VCTS SCT020CB BKN035
     FM292200 27012KT P6SM SCT035 BKN250=

USA.gov is the U.S. government's official web portal to all federal, state and local government web resources and services.